sensor_id;sensor_type;location;lat;lon;timestamp;temperature;humidity
11229;DHT22;5671;47.936;8.716;2023-04-01T00:00:52;5.30;85.70
11229;DHT22;5671;47.936;8.716;2023-04-01T00:03:20;5.60;84.40
11229;DHT22;5671;47.936;8.716;2023-04-01T00:05:48;5.10;85.00
11229;DHT22;5671;47.936;8.716;2023-04-01T00:08:15;5.10;85.40
11229;DHT22;5671;47.936;8.716;2023-04-01T00:10:43;5.30;85.10
11229;DHT22;5671;47.936;8.716;2023-04-01T00:13:10;5.20;85.40
11229;DHT22;5671;47.936;8.716;2023-04-01T00:15:37;5.10;85.30
11229;DHT22;5671;47.936;8.716;2023-04-01T00:18:04;5.00;85.00
11229;DHT22;5671;47.936;8.716;2023-04-01T00:20:32;5.10;84.40
11229;DHT22;5671;47.936;8.716;2023-04-01T00:23:00;5.10;84.80
11229;DHT22;5671;47.936;8.716;2023-04-01T00:25:27;5.10;84.60
11229;DHT22;5671;47.936;8.716;2023-04-01T00:27:54;5.20;84.90
11229;DHT22;5671;47.936;8.716;2023-04-01T00:30:21;5.00;84.60
11229;DHT22;5671;47.936;8.716;2023-04-01T00:32:51;5.00;84.80
11229;DHT22;5671;47.936;8.716;2023-04-01T00:35:18;5.00;84.40
11229;DHT22;5671;47.936;8.716;2023-04-01T00:37:45;5.00;84.70
11229;DHT22;5671;47.936;8.716;2023-04-01T00:40:26;5.40;82.50
11229;DHT22;5671;47.936;8.716;2023-04-01T00:42:53;5.20;83.60
11229;DHT22;5671;47.936;8.716;2023-04-01T00:45:27;4.90;84.30
11229;DHT22;5671;47.936;8.716;2023-04-01T00:47:54;4.90;84.60
11229;DHT22;5671;47.936;8.716;2023-04-01T00:50:23;5.10;85.10
11229;DHT22;5671;47.936;8.716;2023-04-01T00:52:52;4.90;85.20
11229;DHT22;5671;47.936;8.716;2023-04-01T00:55:21;4.80;85.40
11229;DHT22;5671;47.936;8.716;2023-04-01T00:57:50;4.80;85.80
11229;DHT22;5671;47.936;8.716;2023-04-01T01:00:17;4.80;85.60
11229;DHT22;5671;47.936;8.716;2023-04-01T01:02:45;4.80;85.00
11229;DHT22;5671;47.936;8.716;2023-04-01T01:05:14;4.90;85.20
11229;DHT22;5671;47.936;8.716;2023-04-01T01:07:47;4.90;82.60
11229;DHT22;5671;47.936;8.716;2023-04-01T01:10:18;4.60;83.40
11229;DHT22;5671;47.936;8.716;2023-04-01T01:12:51;5.00;82.10
11229;DHT22;5671;47.936;8.716;2023-04-01T01:15:22;4.60;82.80
11229;DHT22;5671;47.936;8.716;2023-04-01T01:17:56;5.00;81.80
11229;DHT22;5671;47.936;8.716;2023-04-01T01:20:49;4.90;82.00
11229;DHT22;5671;47.936;8.716;2023-04-01T01:23:50;4.50;83.90
11229;DHT22;5671;47.936;8.716;2023-04-01T01:26:50;4.40;84.10
11229;DHT22;5671;47.936;8.716;2023-04-01T01:32:55;4.40;84.20
11229;DHT22;5671;47.936;8.716;2023-04-01T01:35:30;4.40;85.20
11229;DHT22;5671;47.936;8.716;2023-04-01T01:38:00;4.50;85.40
11229;DHT22;5671;47.936;8.716;2023-04-01T01:40:30;4.50;85.70
11229;DHT22;5671;47.936;8.716;2023-04-01T01:43:02;4.30;86.10
11229;DHT22;5671;47.936;8.716;2023-04-01T01:45:31;4.30;86.00
11229;DHT22;5671;47.936;8.716;2023-04-01T01:48:00;4.30;85.70
11229;DHT22;5671;47.936;8.716;2023-04-01T01:50:30;4.50;86.20
11229;DHT22;5671;47.936;8.716;2023-04-01T01:53:03;4.50;86.20
11229;DHT22;5671;47.936;8.716;2023-04-01T01:55:32;4.40;86.40
11229;DHT22;5671;47.936;8.716;2023-04-01T01:58:02;4.30;86.60
11229;DHT22;5671;47.936;8.716;2023-04-01T02:00:32;4.30;86.60
11229;DHT22;5671;47.936;8.716;2023-04-01T02:03:00;4.30;86.80
11229;DHT22;5671;47.936;8.716;2023-04-01T02:05:30;4.40;87.40
11229;DHT22;5671;47.936;8.716;2023-04-01T02:08:01;4.30;87.50
11229;DHT22;5671;47.936;8.716;2023-04-01T02:10:31;4.30;87.60
11229;DHT22;5671;47.936;8.716;2023-04-01T02:13:01;4.50;87.70
11229;DHT22;5671;47.936;8.716;2023-04-01T02:15:33;4.30;87.80
11229;DHT22;5671;47.936;8.716;2023-04-01T02:18:04;4.30;88.00
11229;DHT22;5671;47.936;8.716;2023-04-01T02:20:35;4.90;86.70
11229;DHT22;5671;47.936;8.716;2023-04-01T02:23:04;4.90;86.50
11229;DHT22;5671;47.936;8.716;2023-04-01T02:25:35;4.70;87.40
11229;DHT22;5671;47.936;8.716;2023-04-01T02:28:04;4.40;88.20
11229;DHT22;5671;47.936;8.716;2023-04-01T02:30:34;4.40;88.30
11229;DHT22;5671;47.936;8.716;2023-04-01T02:33:01;4.40;88.30
11229;DHT22;5671;47.936;8.716;2023-04-01T02:35:29;4.50;88.40
11229;DHT22;5671;47.936;8.716;2023-04-01T02:37:58;4.70;88.10
11229;DHT22;5671;47.936;8.716;2023-04-01T02:40:25;4.70;88.00
11229;DHT22;5671;47.936;8.716;2023-04-01T02:42:52;4.50;88.10
11229;DHT22;5671;47.936;8.716;2023-04-01T02:45:19;4.50;87.90
11229;DHT22;5671;47.936;8.716;2023-04-01T02:47:46;4.50;87.60
11229;DHT22;5671;47.936;8.716;2023-04-01T02:52:40;5.00;86.50
11229;DHT22;5671;47.936;8.716;2023-04-01T02:55:09;4.50;87.50
11229;DHT22;5671;47.936;8.716;2023-04-01T02:57:36;4.50;87.50
11229;DHT22;5671;47.936;8.716;2023-04-01T03:00:03;4.80;87.00
11229;DHT22;5671;47.936;8.716;2023-04-01T03:02:37;4.50;87.90
11229;DHT22;5671;47.936;8.716;2023-04-01T03:05:04;4.50;87.60
11229;DHT22;5671;47.936;8.716;2023-04-01T03:07:32;4.50;87.60
11229;DHT22;5671;47.936;8.716;2023-04-01T03:09:59;4.70;87.50
11229;DHT22;5671;47.936;8.716;2023-04-01T03:12:27;5.00;86.50
11229;DHT22;5671;47.936;8.716;2023-04-01T03:14:54;5.10;85.90
11229;DHT22;5671;47.936;8.716;2023-04-01T03:17:21;5.10;85.90
11229;DHT22;5671;47.936;8.716;2023-04-01T03:19:48;4.60;86.90
11229;DHT22;5671;47.936;8.716;2023-04-01T03:22:15;4.60;87.40
11229;DHT22;5671;47.936;8.716;2023-04-01T03:27:09;5.00;85.80
11229;DHT22;5671;47.936;8.716;2023-04-01T03:29:37;4.60;87.30
11229;DHT22;5671;47.936;8.716;2023-04-01T03:32:04;4.60;87.80
11229;DHT22;5671;47.936;8.716;2023-04-01T03:34:31;4.60;87.80
11229;DHT22;5671;47.936;8.716;2023-04-01T03:36:58;4.60;88.00
11229;DHT22;5671;47.936;8.716;2023-04-01T03:39:25;4.70;88.20
11229;DHT22;5671;47.936;8.716;2023-04-01T03:41:52;4.80;88.10
11229;DHT22;5671;47.936;8.716;2023-04-01T03:44:19;5.10;87.20
11229;DHT22;5671;47.936;8.716;2023-04-01T03:46:48;4.80;87.90
11229;DHT22;5671;47.936;8.716;2023-04-01T03:49:15;4.60;88.00
11229;DHT22;5671;47.936;8.716;2023-04-01T03:51:43;4.60;88.00
11229;DHT22;5671;47.936;8.716;2023-04-01T03:54:10;5.10;86.70
11229;DHT22;5671;47.936;8.716;2023-04-01T03:56:37;5.10;86.50
11229;DHT22;5671;47.936;8.716;2023-04-01T03:59:06;5.20;86.00
11229;DHT22;5671;47.936;8.716;2023-04-01T04:01:33;4.80;87.30
11229;DHT22;5671;47.936;8.716;2023-04-01T04:04:02;4.60;87.10
11229;DHT22;5671;47.936;8.716;2023-04-01T04:06:29;5.10;86.30
11229;DHT22;5671;47.936;8.716;2023-04-01T04:08:56;4.80;87.10
11229;DHT22;5671;47.936;8.716;2023-04-01T04:11:23;5.10;86.10
11229;DHT22;5671;47.936;8.716;2023-04-01T04:13:50;4.70;87.10
11229;DHT22;5671;47.936;8.716;2023-04-01T04:16:18;4.80;87.50
11229;DHT22;5671;47.936;8.716;2023-04-01T04:21:14;5.20;86.20
11229;DHT22;5671;47.936;8.716;2023-04-01T04:23:41;4.60;87.50
11229;DHT22;5671;47.936;8.716;2023-04-01T04:26:11;4.70;87.80
11229;DHT22;5671;47.936;8.716;2023-04-01T04:28:39;4.60;87.70
11229;DHT22;5671;47.936;8.716;2023-04-01T04:31:06;4.60;87.70
11229;DHT22;5671;47.936;8.716;2023-04-01T04:33:33;4.80;87.50
11229;DHT22;5671;47.936;8.716;2023-04-01T04:36:01;5.10;85.20
11229;DHT22;5671;47.936;8.716;2023-04-01T04:38:31;4.70;85.90
11229;DHT22;5671;47.936;8.716;2023-04-01T04:40:58;5.20;84.20
11229;DHT22;5671;47.936;8.716;2023-04-01T04:43:24;5.20;83.60
11229;DHT22;5671;47.936;8.716;2023-04-01T04:45:51;4.80;83.90
11229;DHT22;5671;47.936;8.716;2023-04-01T04:48:18;5.10;83.60
11229;DHT22;5671;47.936;8.716;2023-04-01T04:50:46;4.80;84.30
11229;DHT22;5671;47.936;8.716;2023-04-01T04:53:13;4.50;84.60
11229;DHT22;5671;47.936;8.716;2023-04-01T04:55:44;4.50;84.50
11229;DHT22;5671;47.936;8.716;2023-04-01T04:58:11;4.60;84.90
11229;DHT22;5671;47.936;8.716;2023-04-01T05:00:38;4.60;85.10
11229;DHT22;5671;47.936;8.716;2023-04-01T05:03:05;5.00;84.40
11229;DHT22;5671;47.936;8.716;2023-04-01T05:05:32;4.50;85.50
11229;DHT22;5671;47.936;8.716;2023-04-01T05:07:59;4.40;85.90
11229;DHT22;5671;47.936;8.716;2023-04-01T05:10:26;4.80;85.20
11229;DHT22;5671;47.936;8.716;2023-04-01T05:12:54;4.90;84.50
11229;DHT22;5671;47.936;8.716;2023-04-01T05:15:21;4.40;85.20
11229;DHT22;5671;47.936;8.716;2023-04-01T05:17:48;4.40;85.20
11229;DHT22;5671;47.936;8.716;2023-04-01T05:20:15;4.40;85.70
11229;DHT22;5671;47.936;8.716;2023-04-01T05:22:42;4.30;85.80
11229;DHT22;5671;47.936;8.716;2023-04-01T05:25:09;4.30;86.10
11229;DHT22;5671;47.936;8.716;2023-04-01T05:27:36;4.30;86.60
11229;DHT22;5671;47.936;8.716;2023-04-01T05:30:06;4.80;84.90
11229;DHT22;5671;47.936;8.716;2023-04-01T05:32:34;4.40;85.50
11229;DHT22;5671;47.936;8.716;2023-04-01T05:35:01;4.80;84.70
11229;DHT22;5671;47.936;8.716;2023-04-01T05:37:28;4.40;86.00
11229;DHT22;5671;47.936;8.716;2023-04-01T05:39:55;4.60;86.20
11229;DHT22;5671;47.936;8.716;2023-04-01T05:42:24;4.30;87.00
11229;DHT22;5671;47.936;8.716;2023-04-01T05:44:51;4.60;86.40
11229;DHT22;5671;47.936;8.716;2023-04-01T05:47:19;4.90;85.60
11229;DHT22;5671;47.936;8.716;2023-04-01T05:49:46;4.60;86.40
11229;DHT22;5671;47.936;8.716;2023-04-01T05:52:13;4.80;86.10
11229;DHT22;5671;47.936;8.716;2023-04-01T05:54:40;4.40;87.20
11229;DHT22;5671;47.936;8.716;2023-04-01T05:57:07;5.00;86.40
11229;DHT22;5671;47.936;8.716;2023-04-01T05:59:34;4.50;87.00
11229;DHT22;5671;47.936;8.716;2023-04-01T06:02:01;4.60;87.40
11229;DHT22;5671;47.936;8.716;2023-04-01T06:04:34;4.70;87.30
11229;DHT22;5671;47.936;8.716;2023-04-01T06:07:10;5.20;85.20
11229;DHT22;5671;47.936;8.716;2023-04-01T06:09:37;5.30;84.50
11229;DHT22;5671;47.936;8.716;2023-04-01T06:12:23;4.90;86.20
11229;DHT22;5671;47.936;8.716;2023-04-01T06:14:57;4.90;86.70
11229;DHT22;5671;47.936;8.716;2023-04-01T06:17:30;5.10;86.60
11229;DHT22;5671;47.936;8.716;2023-04-01T06:20:08;5.00;87.10
11229;DHT22;5671;47.936;8.716;2023-04-01T06:22:49;5.00;86.40
11229;DHT22;5671;47.936;8.716;2023-04-01T06:25:29;5.00;84.90
11229;DHT22;5671;47.936;8.716;2023-04-01T06:31:14;5.10;86.20
11229;DHT22;5671;47.936;8.716;2023-04-01T06:33:52;5.10;86.40
11229;DHT22;5671;47.936;8.716;2023-04-01T06:36:36;5.40;86.20
11229;DHT22;5671;47.936;8.716;2023-04-01T06:39:15;5.20;85.30
11229;DHT22;5671;47.936;8.716;2023-04-01T06:42:10;5.20;85.50
11229;DHT22;5671;47.936;8.716;2023-04-01T06:44:45;5.20;85.20
11229;DHT22;5671;47.936;8.716;2023-04-01T06:47:27;5.10;85.10
11229;DHT22;5671;47.936;8.716;2023-04-01T06:50:02;5.40;84.60
11229;DHT22;5671;47.936;8.716;2023-04-01T06:52:40;5.20;85.10
11229;DHT22;5671;47.936;8.716;2023-04-01T06:55:21;5.60;84.10
11229;DHT22;5671;47.936;8.716;2023-04-01T06:57:53;5.20;85.40
11229;DHT22;5671;47.936;8.716;2023-04-01T07:00:27;5.20;85.40
11229;DHT22;5671;47.936;8.716;2023-04-01T07:02:58;5.10;85.60
11229;DHT22;5671;47.936;8.716;2023-04-01T07:05:31;5.10;86.40
11229;DHT22;5671;47.936;8.716;2023-04-01T07:08:02;5.10;86.60
11229;DHT22;5671;47.936;8.716;2023-04-01T07:10:35;5.10;86.10
11229;DHT22;5671;47.936;8.716;2023-04-01T07:13:13;5.10;86.40
11229;DHT22;5671;47.936;8.716;2023-04-01T07:16:04;5.10;85.90
11229;DHT22;5671;47.936;8.716;2023-04-01T07:18:36;5.10;86.50
11229;DHT22;5671;47.936;8.716;2023-04-01T07:21:22;5.40;86.40
11229;DHT22;5671;47.936;8.716;2023-04-01T07:23:52;5.40;86.00
11229;DHT22;5671;47.936;8.716;2023-04-01T07:26:22;5.60;84.50
11229;DHT22;5671;47.936;8.716;2023-04-01T07:28:54;5.20;85.30
11229;DHT22;5671;47.936;8.716;2023-04-01T07:31:36;5.60;84.20
11229;DHT22;5671;47.936;8.716;2023-04-01T07:34:16;5.10;85.30
11229;DHT22;5671;47.936;8.716;2023-04-01T07:36:48;5.10;85.70
11229;DHT22;5671;47.936;8.716;2023-04-01T07:39:27;5.00;86.10
11229;DHT22;5671;47.936;8.716;2023-04-01T07:42:02;5.50;84.80
11229;DHT22;5671;47.936;8.716;2023-04-01T07:44:37;5.10;86.20
11229;DHT22;5671;47.936;8.716;2023-04-01T07:47:29;5.30;84.80
11229;DHT22;5671;47.936;8.716;2023-04-01T07:50:41;4.90;85.50
11229;DHT22;5671;47.936;8.716;2023-04-01T07:53:42;5.00;85.50
11229;DHT22;5671;47.936;8.716;2023-04-01T07:56:37;4.80;85.40
11229;DHT22;5671;47.936;8.716;2023-04-01T07:59:13;5.10;84.40
11229;DHT22;5671;47.936;8.716;2023-04-01T08:01:48;5.10;84.30
11229;DHT22;5671;47.936;8.716;2023-04-01T08:04:25;4.80;85.70
11229;DHT22;5671;47.936;8.716;2023-04-01T08:07:01;4.80;85.40
11229;DHT22;5671;47.936;8.716;2023-04-01T08:09:41;4.70;85.80
11229;DHT22;5671;47.936;8.716;2023-04-01T08:12:36;5.00;85.80
11229;DHT22;5671;47.936;8.716;2023-04-01T08:15:26;4.50;86.40
11229;DHT22;5671;47.936;8.716;2023-04-01T08:18:02;5.00;85.30
11229;DHT22;5671;47.936;8.716;2023-04-01T08:20:45;5.00;85.10
11229;DHT22;5671;47.936;8.716;2023-04-01T08:23:16;4.70;87.00
11229;DHT22;5671;47.936;8.716;2023-04-01T08:25:48;5.10;86.30
11229;DHT22;5671;47.936;8.716;2023-04-01T08:28:23;5.10;86.10
11229;DHT22;5671;47.936;8.716;2023-04-01T08:30:53;4.70;87.30
11229;DHT22;5671;47.936;8.716;2023-04-01T08:33:24;4.70;86.80
11229;DHT22;5671;47.936;8.716;2023-04-01T08:35:56;4.80;87.20
11229;DHT22;5671;47.936;8.716;2023-04-01T08:38:30;5.20;85.90
11229;DHT22;5671;47.936;8.716;2023-04-01T08:41:22;5.00;86.80
11229;DHT22;5671;47.936;8.716;2023-04-01T08:47:20;4.70;87.40
11229;DHT22;5671;47.936;8.716;2023-04-01T08:50:26;4.80;87.70
11229;DHT22;5671;47.936;8.716;2023-04-01T08:53:04;4.80;87.30
11229;DHT22;5671;47.936;8.716;2023-04-01T08:55:39;4.80;88.00
11229;DHT22;5671;47.936;8.716;2023-04-01T09:01:22;4.90;87.70
11229;DHT22;5671;47.936;8.716;2023-04-01T09:04:19;4.90;88.00
11229;DHT22;5671;47.936;8.716;2023-04-01T09:19:17;4.90;87.10
11229;DHT22;5671;47.936;8.716;2023-04-01T09:22:31;5.30;86.00
11229;DHT22;5671;47.936;8.716;2023-04-01T09:25:22;4.90;87.40
11229;DHT22;5671;47.936;8.716;2023-04-01T09:27:56;4.90;87.80
11229;DHT22;5671;47.936;8.716;2023-04-01T09:30:52;5.00;88.00
11229;DHT22;5671;47.936;8.716;2023-04-01T09:33:51;4.90;87.90
11229;DHT22;5671;47.936;8.716;2023-04-01T09:36:37;4.90;87.80
11229;DHT22;5671;47.936;8.716;2023-04-01T09:39:18;5.10;86.30
11229;DHT22;5671;47.936;8.716;2023-04-01T09:42:01;5.30;85.80
11229;DHT22;5671;47.936;8.716;2023-04-01T09:44:35;5.10;85.80
11229;DHT22;5671;47.936;8.716;2023-04-01T09:47:14;5.10;87.20
11229;DHT22;5671;47.936;8.716;2023-04-01T09:49:59;5.10;87.40
11229;DHT22;5671;47.936;8.716;2023-04-01T09:52:40;5.20;86.40
11229;DHT22;5671;47.936;8.716;2023-04-01T09:55:27;5.40;85.70
11229;DHT22;5671;47.936;8.716;2023-04-01T09:58:26;4.90;87.50
11229;DHT22;5671;47.936;8.716;2023-04-01T10:01:34;4.90;87.50
11229;DHT22;5671;47.936;8.716;2023-04-01T10:10:51;4.80;87.30
11229;DHT22;5671;47.936;8.716;2023-04-01T10:13:55;5.40;85.70
11229;DHT22;5671;47.936;8.716;2023-04-01T10:17:39;5.10;86.70
11229;DHT22;5671;47.936;8.716;2023-04-01T10:20:44;4.90;88.40
11229;DHT22;5671;47.936;8.716;2023-04-01T10:23:49;5.00;89.10
11229;DHT22;5671;47.936;8.716;2023-04-01T10:29:58;5.00;87.60
11229;DHT22;5671;47.936;8.716;2023-04-01T10:32:57;5.10;88.20
11229;DHT22;5671;47.936;8.716;2023-04-01T10:38:59;5.10;86.60
11229;DHT22;5671;47.936;8.716;2023-04-01T10:51:16;5.50;87.70
11229;DHT22;5671;47.936;8.716;2023-04-01T10:53:55;5.80;87.00
11229;DHT22;5671;47.936;8.716;2023-04-01T10:56:40;5.80;86.30
11229;DHT22;5671;47.936;8.716;2023-04-01T11:09:36;5.60;88.60
11229;DHT22;5671;47.936;8.716;2023-04-01T11:12:44;5.60;88.20
11229;DHT22;5671;47.936;8.716;2023-04-01T11:15:35;5.60;87.60
11229;DHT22;5671;47.936;8.716;2023-04-01T11:24:26;5.70;87.20
11229;DHT22;5671;47.936;8.716;2023-04-01T11:27:08;5.70;87.20
11229;DHT22;5671;47.936;8.716;2023-04-01T11:30:06;6.00;86.70
11229;DHT22;5671;47.936;8.716;2023-04-01T11:32:46;5.80;87.40
11229;DHT22;5671;47.936;8.716;2023-04-01T11:35:37;5.90;87.80
11229;DHT22;5671;47.936;8.716;2023-04-01T11:38:19;6.00;87.40
11229;DHT22;5671;47.936;8.716;2023-04-01T11:40:56;6.00;86.80
11229;DHT22;5671;47.936;8.716;2023-04-01T11:43:31;6.20;88.20
11229;DHT22;5671;47.936;8.716;2023-04-01T11:46:05;6.20;85.10
11229;DHT22;5671;47.936;8.716;2023-04-01T11:48:44;6.60;86.80
11229;DHT22;5671;47.936;8.716;2023-04-01T11:51:38;6.90;84.20
11229;DHT22;5671;47.936;8.716;2023-04-01T11:54:20;7.10;83.90
11229;DHT22;5671;47.936;8.716;2023-04-01T11:57:05;6.70;84.50
11229;DHT22;5671;47.936;8.716;2023-04-01T11:59:53;6.60;83.10
11229;DHT22;5671;47.936;8.716;2023-04-01T12:02:29;6.70;83.40
11229;DHT22;5671;47.936;8.716;2023-04-01T12:05:08;6.80;84.40
11229;DHT22;5671;47.936;8.716;2023-04-01T12:07:55;6.90;83.70
11229;DHT22;5671;47.936;8.716;2023-04-01T12:10:33;7.00;83.20
11229;DHT22;5671;47.936;8.716;2023-04-01T12:13:15;7.00;81.50
11229;DHT22;5671;47.936;8.716;2023-04-01T12:18:38;6.90;80.50
11229;DHT22;5671;47.936;8.716;2023-04-01T12:21:16;7.00;81.80
11229;DHT22;5671;47.936;8.716;2023-04-01T12:24:02;7.00;81.10
11229;DHT22;5671;47.936;8.716;2023-04-01T12:26:42;7.00;81.20
11229;DHT22;5671;47.936;8.716;2023-04-01T12:29:43;7.00;80.40
11229;DHT22;5671;47.936;8.716;2023-04-01T12:32:21;7.00;79.40
11229;DHT22;5671;47.936;8.716;2023-04-01T12:35:04;7.00;81.30
11229;DHT22;5671;47.936;8.716;2023-04-01T12:37:44;7.00;79.20
11229;DHT22;5671;47.936;8.716;2023-04-01T12:40:36;6.90;80.10
11229;DHT22;5671;47.936;8.716;2023-04-01T12:46:13;6.90;79.30
11229;DHT22;5671;47.936;8.716;2023-04-01T12:52:04;7.00;78.00
11229;DHT22;5671;47.936;8.716;2023-04-01T13:01:02;6.90;77.90
11229;DHT22;5671;47.936;8.716;2023-04-01T13:03:59;7.00;79.10
11229;DHT22;5671;47.936;8.716;2023-04-01T13:09:28;6.90;76.70
11229;DHT22;5671;47.936;8.716;2023-04-01T13:12:10;7.00;77.30
11229;DHT22;5671;47.936;8.716;2023-04-01T13:15:05;7.20;77.60
11229;DHT22;5671;47.936;8.716;2023-04-01T13:17:43;7.00;76.90
11229;DHT22;5671;47.936;8.716;2023-04-01T13:20:23;7.00;77.40
11229;DHT22;5671;47.936;8.716;2023-04-01T13:23:01;7.60;74.60
11229;DHT22;5671;47.936;8.716;2023-04-01T13:25:38;7.10;76.70
11229;DHT22;5671;47.936;8.716;2023-04-01T13:28:12;7.10;76.30
11229;DHT22;5671;47.936;8.716;2023-04-01T13:30:48;7.20;76.20
11229;DHT22;5671;47.936;8.716;2023-04-01T13:33:22;7.20;76.50
11229;DHT22;5671;47.936;8.716;2023-04-01T13:36:03;7.20;75.40
11229;DHT22;5671;47.936;8.716;2023-04-01T13:38:57;7.20;75.10
11229;DHT22;5671;47.936;8.716;2023-04-01T13:41:43;7.20;75.60
11229;DHT22;5671;47.936;8.716;2023-04-01T13:44:20;7.20;76.20
11229;DHT22;5671;47.936;8.716;2023-04-01T13:47:09;7.20;76.90
11229;DHT22;5671;47.936;8.716;2023-04-01T13:49:54;7.20;75.60
11229;DHT22;5671;47.936;8.716;2023-04-01T13:55:33;7.30;74.90
11229;DHT22;5671;47.936;8.716;2023-04-01T14:01:09;7.30;76.40
11229;DHT22;5671;47.936;8.716;2023-04-01T14:04:10;7.40;77.50
11229;DHT22;5671;47.936;8.716;2023-04-01T14:06:56;7.40;76.80
11229;DHT22;5671;47.936;8.716;2023-04-01T14:12:29;7.50;75.10
11229;DHT22;5671;47.936;8.716;2023-04-01T14:17:57;7.60;76.20
11229;DHT22;5671;47.936;8.716;2023-04-01T14:20:48;7.60;73.90
11229;DHT22;5671;47.936;8.716;2023-04-01T14:23:40;7.60;74.90
11229;DHT22;5671;47.936;8.716;2023-04-01T14:26:30;7.70;74.60
11229;DHT22;5671;47.936;8.716;2023-04-01T14:29:12;7.70;74.00
11229;DHT22;5671;47.936;8.716;2023-04-01T14:31:48;7.70;73.50
11229;DHT22;5671;47.936;8.716;2023-04-01T14:34:30;7.70;73.70
11229;DHT22;5671;47.936;8.716;2023-04-01T14:37:15;7.70;73.40
11229;DHT22;5671;47.936;8.716;2023-04-01T14:40:26;7.70;72.70
11229;DHT22;5671;47.936;8.716;2023-04-01T14:46:32;7.70;71.10
11229;DHT22;5671;47.936;8.716;2023-04-01T14:49:04;7.70;74.20
11229;DHT22;5671;47.936;8.716;2023-04-01T14:51:41;7.70;72.80
11229;DHT22;5671;47.936;8.716;2023-04-01T14:54:13;7.80;72.30
11229;DHT22;5671;47.936;8.716;2023-04-01T14:56:49;7.80;71.70
11229;DHT22;5671;47.936;8.716;2023-04-01T14:59:26;7.80;72.20
11229;DHT22;5671;47.936;8.716;2023-04-01T15:02:01;7.90;74.60
11229;DHT22;5671;47.936;8.716;2023-04-01T15:04:49;7.90;72.90
11229;DHT22;5671;47.936;8.716;2023-04-01T15:07:49;7.90;73.50
11229;DHT22;5671;47.936;8.716;2023-04-01T15:10:37;8.00;71.90
11229;DHT22;5671;47.936;8.716;2023-04-01T15:13:12;8.00;72.80
11229;DHT22;5671;47.936;8.716;2023-04-01T15:15:51;8.00;74.40
11229;DHT22;5671;47.936;8.716;2023-04-01T15:18:30;8.00;75.50
11229;DHT22;5671;47.936;8.716;2023-04-01T15:21:19;8.00;75.60
11229;DHT22;5671;47.936;8.716;2023-04-01T15:23:57;8.00;73.00
11229;DHT22;5671;47.936;8.716;2023-04-01T15:26:42;8.00;74.40
11229;DHT22;5671;47.936;8.716;2023-04-01T15:29:38;8.00;74.90
11229;DHT22;5671;47.936;8.716;2023-04-01T15:32:15;8.00;76.00
11229;DHT22;5671;47.936;8.716;2023-04-01T15:34:50;7.90;76.00
11229;DHT22;5671;47.936;8.716;2023-04-01T15:37:26;7.90;77.00
11229;DHT22;5671;47.936;8.716;2023-04-01T15:39:58;7.80;79.30
11229;DHT22;5671;47.936;8.716;2023-04-01T15:42:42;7.60;82.50
11229;DHT22;5671;47.936;8.716;2023-04-01T15:45:18;7.20;82.90
11229;DHT22;5671;47.936;8.716;2023-04-01T15:47:58;6.70;81.70
11229;DHT22;5671;47.936;8.716;2023-04-01T15:50:53;6.60;82.90
11229;DHT22;5671;47.936;8.716;2023-04-01T15:53:32;6.50;80.60
11229;DHT22;5671;47.936;8.716;2023-04-01T15:56:12;6.40;82.00
11229;DHT22;5671;47.936;8.716;2023-04-01T15:58:52;6.40;83.00
11229;DHT22;5671;47.936;8.716;2023-04-01T16:01:28;6.40;84.50
11229;DHT22;5671;47.936;8.716;2023-04-01T16:04:12;6.40;84.50
11229;DHT22;5671;47.936;8.716;2023-04-01T16:07:02;6.40;84.90
11229;DHT22;5671;47.936;8.716;2023-04-01T16:09:47;6.40;84.40
11229;DHT22;5671;47.936;8.716;2023-04-01T16:12:18;6.40;84.80
11229;DHT22;5671;47.936;8.716;2023-04-01T16:14:55;6.40;84.10
11229;DHT22;5671;47.936;8.716;2023-04-01T16:17:54;6.40;84.10
11229;DHT22;5671;47.936;8.716;2023-04-01T16:20:25;6.50;84.60
11229;DHT22;5671;47.936;8.716;2023-04-01T16:22:58;6.50;84.60
11229;DHT22;5671;47.936;8.716;2023-04-01T16:25:33;6.50;83.00
11229;DHT22;5671;47.936;8.716;2023-04-01T16:28:19;6.50;83.90
11229;DHT22;5671;47.936;8.716;2023-04-01T16:30:55;6.50;82.90
11229;DHT22;5671;47.936;8.716;2023-04-01T16:33:24;6.60;83.70
11229;DHT22;5671;47.936;8.716;2023-04-01T16:35:58;6.70;83.80
11229;DHT22;5671;47.936;8.716;2023-04-01T16:38:35;6.70;83.60
11229;DHT22;5671;47.936;8.716;2023-04-01T16:41:11;6.60;82.40
11229;DHT22;5671;47.936;8.716;2023-04-01T16:43:43;6.50;82.80
11229;DHT22;5671;47.936;8.716;2023-04-01T16:46:20;6.50;83.40
11229;DHT22;5671;47.936;8.716;2023-04-01T16:48:59;6.50;82.90
11229;DHT22;5671;47.936;8.716;2023-04-01T16:51:34;6.50;83.10
11229;DHT22;5671;47.936;8.716;2023-04-01T16:54:13;6.50;82.70
11229;DHT22;5671;47.936;8.716;2023-04-01T16:56:44;6.40;82.70
11229;DHT22;5671;47.936;8.716;2023-04-01T16:59:19;6.40;82.60
11229;DHT22;5671;47.936;8.716;2023-04-01T17:01:52;6.40;82.20
11229;DHT22;5671;47.936;8.716;2023-04-01T17:04:27;6.40;82.90
11229;DHT22;5671;47.936;8.716;2023-04-01T17:07:05;6.30;83.30
11229;DHT22;5671;47.936;8.716;2023-04-01T17:09:51;6.30;83.40
11229;DHT22;5671;47.936;8.716;2023-04-01T17:12:26;6.30;84.10
11229;DHT22;5671;47.936;8.716;2023-04-01T17:15:04;6.20;83.20
11229;DHT22;5671;47.936;8.716;2023-04-01T17:17:41;6.10;83.70
11229;DHT22;5671;47.936;8.716;2023-04-01T17:20:25;6.10;84.50
11229;DHT22;5671;47.936;8.716;2023-04-01T17:22:55;6.10;84.60
11229;DHT22;5671;47.936;8.716;2023-04-01T17:25:38;6.10;84.50
11229;DHT22;5671;47.936;8.716;2023-04-01T17:28:13;6.00;84.40
11229;DHT22;5671;47.936;8.716;2023-04-01T17:30:48;6.00;84.10
11229;DHT22;5671;47.936;8.716;2023-04-01T17:33:47;6.00;84.40
11229;DHT22;5671;47.936;8.716;2023-04-01T17:36:29;6.00;84.20
11229;DHT22;5671;47.936;8.716;2023-04-01T17:39:09;6.00;83.60
11229;DHT22;5671;47.936;8.716;2023-04-01T17:41:50;6.00;84.10
11229;DHT22;5671;47.936;8.716;2023-04-01T17:44:28;6.00;83.70
11229;DHT22;5671;47.936;8.716;2023-04-01T17:47:15;6.00;84.00
11229;DHT22;5671;47.936;8.716;2023-04-01T17:49:49;5.90;84.10
11229;DHT22;5671;47.936;8.716;2023-04-01T17:52:26;5.90;84.00
11229;DHT22;5671;47.936;8.716;2023-04-01T17:55:02;5.90;84.60
11229;DHT22;5671;47.936;8.716;2023-04-01T17:57:43;5.80;84.30
11229;DHT22;5671;47.936;8.716;2023-04-01T18:00:21;5.80;84.10
11229;DHT22;5671;47.936;8.716;2023-04-01T18:02:57;5.70;84.80
11229;DHT22;5671;47.936;8.716;2023-04-01T18:05:40;5.70;85.30
11229;DHT22;5671;47.936;8.716;2023-04-01T18:08:14;5.60;85.60
11229;DHT22;5671;47.936;8.716;2023-04-01T18:10:55;5.60;85.30
11229;DHT22;5671;47.936;8.716;2023-04-01T18:13:55;5.50;85.40
11229;DHT22;5671;47.936;8.716;2023-04-01T18:16:46;5.50;85.10
11229;DHT22;5671;47.936;8.716;2023-04-01T18:19:26;5.40;84.70
11229;DHT22;5671;47.936;8.716;2023-04-01T18:22:08;5.40;84.80
11229;DHT22;5671;47.936;8.716;2023-04-01T18:24:41;5.30;84.80
11229;DHT22;5671;47.936;8.716;2023-04-01T18:27:17;5.20;84.40
11229;DHT22;5671;47.936;8.716;2023-04-01T18:29:50;5.20;84.20
11229;DHT22;5671;47.936;8.716;2023-04-01T18:32:26;5.20;84.20
11229;DHT22;5671;47.936;8.716;2023-04-01T18:35:00;5.10;84.60
11229;DHT22;5671;47.936;8.716;2023-04-01T18:37:31;5.10;84.80
11229;DHT22;5671;47.936;8.716;2023-04-01T18:40:10;5.00;84.90
11229;DHT22;5671;47.936;8.716;2023-04-01T18:42:45;4.90;85.70
11229;DHT22;5671;47.936;8.716;2023-04-01T18:45:22;4.90;85.50
11229;DHT22;5671;47.936;8.716;2023-04-01T18:48:00;4.90;85.40
11229;DHT22;5671;47.936;8.716;2023-04-01T18:50:36;4.80;85.20